Tiempo atmosférico en la estación meteorológica de Motril, Puerto, Granada (3 m.)



Fecha
DESCASC
Temp. máxima en grados centígrados (hora)
DESCASC
Temp. mínima en grados centígrados (hora)
DESCASC
Temp. media en grados centígrados
DESCASC
Racha de viento máxima en m/sg (hora)
DESCASC
Velocidad máxima media en intervalos de 10 minutos(hora)
DESCASC
Precipitaciones diarias en mm
DESCASC
Precipitaciones de 00:00 a 06:00 en mm
DESCASC
Precipitaciones de 06:00 a 12:00 en mm
DESCASC
Precipitaciones de 12:00 a 18:00 en mm
DESCASC
Precipitaciones de 18:00 a 24:00 en mm
DESCASC
22-01-2020 -- (--) -- (--) -- 10.83 (15:20) 6.94 (15:50) 21.4 3 0 6 12.4
21-01-2020 -- (--) -- (--) -- 6.11 (13:20) 3.33 (13:20) 21 0 0 8.8 12.2
20-01-2020 -- (--) -- (--) -- 8.06 (11:20) 3.89 (11:30) 2.2 0 1.4 0.8 0
19-01-2020 -- (--) -- (--) -- 16.11 (08:30) 9.17 (09:10) 1.4 0 0 0 1.4
18-01-2020 -- (--) -- (--) -- 8.06 (22:30) 4.17 (22:50) 0.6 0 0.2 0.4 0
17-01-2020 -- (--) -- (--) -- 9.17 (13:00) 5.83 (13:00) 0 0 0 0 0
16-01-2020 -- (--) -- (--) -- 4.72 (13:20) 3.89 (13:30) 0 0 0 0 0
15-01-2020 -- (--) -- (--) -- 6.11 (14:10) 4.72 (13:20) 0 0 0 0 0
14-01-2020 -- (--) -- (--) -- 7.5 (15:10) 4.17 (14:10) 0 0 0 0 0
13-01-2020 -- (--) -- (--) -- 4.44 (23:50) 2.22 (23:50) 0 0 0 0 0
12-01-2020 -- (--) -- (--) -- 4.44 (13:10) 2.5 (12:40) 0 0 0 0 0
11-01-2020 -- (--) -- (--) -- 3.89 (02:40) 1.94 (15:30) 0 0 0 0 0
10-01-2020 -- (--) -- (--) -- 5.56 (13:10) 3.89 (17:20) 0 0 0 0 0
09-01-2020 20.8 (12:40) 10.6 (00:00) 15.7 4.44 (14:40) 2.5 (14:40) 0 0 0 0 0
08-01-2020 19.8 (12:30) 6.5 (00:00) 13.1 5.28 (18:10) 3.89 (17:30) 0 0 0 0 0
07-01-2020 20.6 (10:50) 6.4 (00:00) 13.5 2.78 (13:30) 1.94 (13:30) 0 0 0 0 0
06-01-2020 21.7 (11:20) 8 (00:00) 14.9 3.61 (15:40) 2.5 (13:20) 0 0 0 0 0
05-01-2020 21.7 (11:40) 9.9 (00:00) 15.8 7.5 (13:40) 6.11 (13:40) 0 0 0 0 0
04-01-2020 16.8 (12:20) 9.1 (00:00) 12.9 9.72 (15:30) 6.94 (15:30) 0 0 0 0 0
03-01-2020 19.8 (12:20) 7.6 (00:00) 13.7 5.56 (16:30) 2.78 (14:10) 0.2 0 0.2 0 0
02-01-2020 18.5 (14:10) 10 (00:00) 14.3 3.33 (15:40) 1.94 (15:40) 0 0 0 0 0
01-01-2020 21.4 (11:40) 7.5 (00:00) 14.4 -- (--) -- (--) -- -- 0 0 0
31-12-2019 -- (--) -- (--) -- -- (--) -- (--) -- -- -- 0 0
30-12-2019 -- (--) -- (--) -- -- (--) -- (--) -- 0 0 0 --
29-12-2019 20.8 (10:50) 10.2 (00:00) 15.5 10 (12:40) 6.67 (13:00) 0 0 0 0 0
28-12-2019 21.5 (12:10) 10.3 (00:00) 15.9 3.89 (20:00) 2.5 (18:10) 0 0 0 0 0
27-12-2019 21.8 (11:10) 9.1 (00:00) 15.4 5 (13:10) 3.89 (16:50) 0 0 0 0 0
26-12-2019 21.2 (13:20) 8.9 (00:00) 15.1 3.33 (17:50) 2.78 (18:00) 0 0 0 0 0
25-12-2019 27.5 (10:50) 9.9 (00:00) 18.7 3.89 (13:30) 1.67 (13:30) 0 0 0 0 0

Gráficas

Temp. máximas Temp. mínimas Temp. medias Precipitaciones Rachas de viento máximas Velocidades máximas media en intervalos de 10 minutos

Datos horarios

Fecha y hora oficial Temperatura (ºC) Velocidad del viento (km/h) Dirección del viento Racha (km/h) Dirección de racha Precipitación (mm) Presión (hPa) Tendencia (hPa) Humedad (%)
2020-01-23 23:00:00 -- -- -- -- -- -- -- -- --
2020-01-23 22:00:00 -- 3 Oeste 11 Este 0 -- -- 75
2020-01-23 21:00:00 -- 6 Sudeste 12 Este 0 -- -- 73
2020-01-23 20:00:00 -- 5 Este 18 Este 0 -- -- 76
2020-01-23 19:00:00 -- 11 Este 28 Este 0 -- -- 77
2020-01-23 18:00:00 -- 16 Este 31 Sudeste 0 -- -- 74
2020-01-23 17:00:00 -- 22 Sudeste 36 Sudeste 0 -- -- 68
2020-01-23 16:00:00 -- 25 Sudeste 34 Sudeste 0 -- -- 71
2020-01-23 15:00:00 -- 19 Sudeste 35 Sudeste 0 -- -- 63
2020-01-23 14:00:00 -- 23 Sudeste 33 Este 0 -- -- 60
2020-01-23 13:00:00 -- 22 Este 35 Sudeste 0 -- -- 64
2020-01-23 12:00:00 -- 21 Sudeste 33 Este 0 -- -- 65
2020-01-23 11:00:00 -- 14 Este 28 Este 0 -- -- 57
2020-01-23 10:00:00 -- 3 Norte 5 Noroeste 0 -- -- 73
2020-01-23 09:00:00 -- 0 Calma 8 Norte 0 -- -- 86
2020-01-23 08:00:00 -- 3 Norte 11 Nordeste 0 -- -- 89
2020-01-23 07:00:00 -- 0 Calma 6 Nordeste 0 -- -- 88
2020-01-23 06:00:00 -- 4 Oeste 14 Este 0 -- -- 83
2020-01-23 05:00:00 -- 5 Nordeste 25 Sudeste 0 -- -- 83
2020-01-23 04:00:00 -- 13 Este 27 Este 0 -- -- 86
2020-01-23 03:00:00 -- 4 Nordeste 9 Norte 0 -- -- 90
2020-01-23 02:00:00 -- 4 Noroeste 8 Norte 0 -- -- 92
2020-01-23 01:00:00 -- 0 Calma 6 Norte 0 -- -- 92
2020-01-23 00:00:00 -- 4 Norte 10 Nordeste 0 -- -- 91
2020-01-22 23:00:00 -- 2 Norte 8 Noroeste 0 -- -- 90
2020-01-22 22:00:00 -- 5 Noroeste 15 Nordeste 0 -- -- 89
2020-01-22 21:00:00 -- 6 Nordeste 25 Nordeste 4 -- -- 91
2020-01-22 20:00:00 -- 10 Nordeste 20 Nordeste 5 -- -- 92
2020-01-22 19:00:00 -- 4 Noroeste 5 Noroeste 3.4 -- -- 91
2020-01-22 18:00:00 -- 3 Norte 10 Este 2.4 -- -- 88
2020-01-22 17:00:00 -- 10 Este 30 Este 2.4 -- -- 79
2020-01-22 16:00:00 -- 25 Sudeste 39 Sudeste 1.2 -- -- 72
2020-01-22 15:00:00 -- 19 Este 32 Sudeste 0 -- -- 70
2020-01-22 14:00:00 -- 3 Norte 18 Oeste 0 -- -- 73
2020-01-22 13:00:00 -- 14 Oeste 26 Este 0 -- -- 70
2020-01-22 12:00:00 -- 18 Este 26 Este 0 -- -- 65
2020-01-22 11:00:00 -- 14 Sudeste 24 Sudeste 0 -- -- 59
2020-01-22 10:00:00 -- 4 Oeste 15 Este 0 -- -- 73
2020-01-22 09:00:00 -- 11 Este 21 Este 0 -- -- 71
2020-01-22 08:00:00 -- 3 Nordeste 8 Noroeste 0 -- -- 89
2020-01-22 07:00:00 -- 4 Noroeste 8 Noroeste 0 -- -- 89
2020-01-22 06:00:00 -- 2 Nordeste 9 Noroeste 0 -- -- 89
2020-01-22 05:00:00 -- 4 Norte 13 Nordeste 0 -- -- 88
2020-01-22 04:00:00 -- 0 Calma 6 Norte 0 -- -- 91
2020-01-22 03:00:00 -- 3 Norte 9 Nordeste 0 -- -- 89
2020-01-22 02:00:00 -- 7 Nordeste 16 Nordeste 0 -- -- 89
2020-01-22 01:00:00 -- 9 Nordeste 21 Nordeste 3 -- -- 93
2020-01-22 00:00:00 -- 4 Nordeste 9 Nordeste 5.2 -- -- 94
2020-01-21 23:00:00 -- 7 Noroeste 11 Oeste 1.2 -- -- 93
2020-01-21 22:00:00 -- 2 Noroeste 5 Noroeste 1.2 -- -- 93
2020-01-21 21:00:00 -- 0 Calma 4 Noroeste 0.8 -- -- 93
2020-01-21 20:00:00 -- 0 Calma 6 Nordeste 1.2 -- -- 92
2020-01-21 19:00:00 -- 0 Calma 3 Norte 2.6 -- -- 91
2020-01-21 18:00:00 -- 0 Calma 11 Noroeste 6.4 -- -- 89
2020-01-21 17:00:00 -- 6 Oeste 13 Noroeste 2 -- -- 82
2020-01-21 16:00:00 -- 5 Sur 9 Sur 0 -- -- 78
2020-01-21 15:00:00 -- 6 Oeste 13 Sudoeste 0.4 -- -- 79
2020-01-21 14:00:00 -- 4 Oeste 22 Sudoeste 0 -- -- 70
2020-01-21 13:00:00 -- 4 Noroeste 12 Norte 0 -- -- 50
2020-01-21 12:00:00 -- 4 Norte 15 Noroeste 0 -- -- 54
2020-01-21 11:00:00 -- 6 Norte 14 Norte 0 -- -- 56
2020-01-21 10:00:00 -- 2 Norte 6 Norte 0 -- -- 62
2020-01-21 09:00:00 -- 3 Norte 9 Norte 0 -- -- 62
2020-01-21 08:00:00 -- 3 Noroeste 8 Noroeste 0 -- -- 61
2020-01-21 07:00:00 -- 4 Noroeste 12 Noroeste 0 -- -- 60
2020-01-21 06:00:00 -- 5 Noroeste 19 Oeste 0 -- -- 61
2020-01-21 05:00:00 -- 5 Oeste 14 Norte 0 -- -- 62
2020-01-21 04:00:00 -- 5 Noroeste 20 Nordeste 0 -- -- 61
2020-01-21 03:00:00 -- 6 Norte 18 Norte 0 -- -- 63
2020-01-21 02:00:00 -- 4 Norte 6 Nordeste 0 -- -- 68
2020-01-21 01:00:00 -- 3 Noroeste 18 Norte 0 -- -- 65
2020-01-21 00:00:00 -- 8 Norte 18 Norte 0 -- -- 62
2020-01-20 23:00:00 -- 2 Noroeste 14 Noroeste 0 -- -- 69
2020-01-20 22:00:00 -- 4 Noroeste 14 Noroeste 0 -- -- 65
2020-01-20 21:00:00 -- 4 Nordeste 17 Norte 0 -- -- 67
2020-01-20 20:00:00 -- 3 Noroeste 8 Oeste 0 -- -- 80
2020-01-20 19:00:00 -- 3 Noroeste 9 Nordeste 0 -- -- 82
2020-01-20 18:00:00 -- 0 Calma 9 Nordeste 0 -- -- 80
2020-01-20 17:00:00 -- 5 Nordeste 12 Este 0.2 -- -- 77
2020-01-20 16:00:00 -- 3 Norte 10 Oeste 0.2 -- -- 71
2020-01-20 15:00:00 -- 3 Sudoeste 16 Sudoeste 0.4 -- -- 68
2020-01-20 14:00:00 -- 0 Calma 12 Noroeste 0 -- -- 59
2020-01-20 13:00:00 -- 6 Noroeste 27 Norte 0 -- -- 59
2020-01-20 12:00:00 -- 10 Norte 29 Norte 0 -- -- 48
2020-01-20 11:00:00 -- 5 Noroeste 17 Norte 0 -- -- 55
2020-01-20 10:00:00 -- 7 Noroeste 18 Noroeste 0 -- -- 60
2020-01-20 09:00:00 -- 6 Noroeste 14 Oeste 0 -- -- 68
2020-01-20 08:00:00 -- 7 Norte 17 Norte 0 -- -- 73
2020-01-20 07:00:00 -- 7 Noroeste 26 Norte 1.4 -- -- 75
2020-01-20 06:00:00 -- 10 Norte 24 Norte 0 -- -- 55
2020-01-20 05:00:00 -- 11 Norte 24 Norte 0 -- -- 53
2020-01-20 04:00:00 -- 12 Norte 24 Norte 0 -- -- 57
2020-01-20 03:00:00 -- 6 Norte 28 Norte 0 -- -- 56
2020-01-20 02:00:00 -- 3 Nordeste 11 Noroeste 0 -- -- 60
2020-01-20 01:00:00 -- 3 Noroeste 14 Este 0 -- -- 65
2020-01-20 00:00:00 -- 2 Norte 8 Noroeste 0 -- -- 71
2020-01-19 23:00:00 -- 4 Nordeste 26 Este 0 -- -- 74
2020-01-19 22:00:00 -- 21 Este 33 Este 1.4 -- -- 75
2020-01-19 21:00:00 -- 10 Norte 29 Norte 0 -- -- 50
2020-01-19 20:00:00 -- 6 Norte 25 Norte 0 -- -- 47
2020-01-19 19:00:00 -- 13 Norte 28 Noroeste 0 -- -- 46
2020-01-19 18:00:00 -- 12 Norte 36 Norte 0 -- -- 45
2020-01-19 17:00:00 -- 14 Norte 38 Norte 0 -- -- 42
2020-01-19 16:00:00 -- 23 Norte 53 Norte 0 -- -- 44
2020-01-19 15:00:00 -- 15 Noroeste 34 Norte 0 -- -- 34
2020-01-19 14:00:00 -- 18 Norte 39 Norte 0 -- -- 34
2020-01-19 13:00:00 -- 14 Norte 39 Noroeste 0 -- -- 34
2020-01-19 12:00:00 -- 10 Norte 42 Norte 0 -- -- 44
2020-01-19 11:00:00 -- 16 Noroeste 56 Noroeste 0 -- -- 41
2020-01-19 10:00:00 -- 23 Noroeste 52 Noroeste 0 -- -- 43
2020-01-19 09:00:00 -- 29 Noroeste 58 Oeste 0 -- -- 52
2020-01-19 08:00:00 -- 13 Noroeste 34 Norte 0 -- -- 50
2020-01-19 07:00:00 -- 15 Noroeste 37 Noroeste 0 -- -- 54
2020-01-19 06:00:00 -- 19 Noroeste 46 Noroeste 0 -- -- 50
2020-01-19 05:00:00 -- 24 Noroeste 48 Noroeste 0 -- -- 47
2020-01-19 04:00:00 -- 12 Norte 53 Noroeste 0 -- -- 53
2020-01-19 03:00:00 -- 8 Noroeste 20 Oeste 0 -- -- 82
2020-01-19 02:00:00 -- 10 Noroeste 36 Noroeste 0 -- -- 83
2020-01-19 01:00:00 -- 18 Oeste 30 Oeste 0 -- -- 84
2020-01-19 00:00:00 -- 14 Oeste 27 Oeste 0 -- -- 83
2020-01-18 23:00:00 -- 14 Oeste 29 Oeste 0 -- -- 84
2020-01-18 22:00:00 -- 4 Norte 13 Nordeste 0 -- -- 82
2020-01-18 21:00:00 -- 3 Norte 10 Noroeste 0 -- -- 80
2020-01-18 20:00:00 -- 0 Calma 8 Noroeste 0 -- -- 77
2020-01-18 19:00:00 -- 5 Oeste 17 Sudoeste 0 -- -- 75
2020-01-18 18:00:00 -- 8 Oeste 19 Oeste 0 -- -- 72
2020-01-18 17:00:00 -- 8 Oeste 17 Oeste 0 -- -- 75
2020-01-18 16:00:00 -- 6 Oeste 13 Oeste 0 -- -- 73
2020-01-18 15:00:00 -- 3 Oeste 14 Oeste 0 -- -- 69
2020-01-18 14:00:00 -- 3 Sur 6 Este 0 -- -- 78
2020-01-18 13:00:00 -- 3 Nordeste 6 Nordeste 0.4 -- -- 76
2020-01-18 12:00:00 -- 2 Norte 4 Norte 0.2 -- -- 70
2020-01-18 11:00:00 -- 2 Noroeste 6 Oeste 0 -- -- 61
2020-01-18 10:00:00 -- 3 Nordeste 7 Este 0 -- -- 70
2020-01-18 09:00:00 -- 0 Calma 3 Oeste 0 -- -- 77
2020-01-18 08:00:00 -- 0 Calma 6 Noroeste 0 -- -- 79
2020-01-18 07:00:00 -- 3 Oeste 5 Norte 0 -- -- 78
2020-01-18 06:00:00 -- 4 Norte 8 Norte 0 -- -- 74
2020-01-18 05:00:00 -- 3 Este 5 Norte 0 -- -- 75
2020-01-18 04:00:00 -- 5 Norte 9 Norte 0 -- -- 73
2020-01-18 03:00:00 -- 4 Sudeste 10 Sudeste 0 -- -- 71
2020-01-18 02:00:00 -- 3 Noroeste 10 Sudeste 0 -- -- 67
2020-01-18 01:00:00 -- 8 Sudeste 16 Norte 0 -- -- 63
2020-01-18 00:00:00 -- 8 Nordeste 22 Norte 0 -- -- 56
2020-01-17 23:00:00 -- 12 Norte 27 Nordeste 0 -- -- 53
2020-01-17 22:00:00 -- 5 Este 13 Nordeste 0 -- -- 69
2020-01-17 21:00:00 -- 3 Noroeste 14 Noroeste 0 -- -- 77
2020-01-17 20:00:00 -- 3 Este 10 Nordeste 0 -- -- 80
2020-01-17 19:00:00 -- 4 Nordeste 10 Nordeste 0 -- -- 77
2020-01-17 18:00:00 -- 8 Sur 16 Sudoeste 0 -- -- 74
2020-01-17 17:00:00 -- 9 Sudeste 22 Oeste 0 -- -- 74
2020-01-17 16:00:00 -- 11 Oeste 28 Oeste 0 -- -- 67
2020-01-17 15:00:00 -- 15 Oeste 28 Oeste 0 -- -- 60
2020-01-17 14:00:00 -- 14 Oeste 31 Oeste 0 -- -- 60
2020-01-17 13:00:00 -- 21 Noroeste 33 Noroeste 0 -- -- 35
2020-01-17 12:00:00 -- 9 Oeste 14 Oeste 0 -- -- 46
2020-01-17 11:00:00 -- 3 Sudoeste 6 Nordeste 0 -- -- 38
2020-01-17 10:00:00 -- 0 Calma 6 Norte 0 -- -- 64
2020-01-17 09:00:00 -- 3 Este 9 Este 0 -- -- 75
2020-01-17 08:00:00 -- 3 Oeste 5 Sudoeste 0 -- -- 79
2020-01-17 07:00:00 -- 0 Calma 6 Norte 0 -- -- 78
2020-01-17 06:00:00 -- 2 Norte 12 Oeste 0 -- -- 74
2020-01-17 05:00:00 -- 3 Norte 15 Oeste 0 -- -- 76
2020-01-17 04:00:00 -- 6 Noroeste 8 Noroeste 0 -- -- 80
2020-01-17 03:00:00 -- 3 Norte 6 Norte 0 -- -- 79
2020-01-17 02:00:00 -- 0 Calma 8 Oeste 0 -- -- 81
2020-01-17 01:00:00 -- 0 Calma 5 Este 0 -- -- 83
2020-01-17 00:00:00 -- 3 Norte 8 Oeste 0 -- -- 85
2020-01-16 23:00:00 -- 2 Sudeste 6 Norte 0 -- -- 87
2020-01-16 22:00:00 -- 0 Calma 8 Nordeste 0 -- -- 87
2020-01-16 21:00:00 -- 2 Este 4 Este 0 -- -- 86
2020-01-16 20:00:00 -- 3 Nordeste 7 Nordeste 0 -- -- 83
2020-01-16 19:00:00 -- 2 Noroeste 5 Oeste 0 -- -- 80
2020-01-16 18:00:00 -- 3 Oeste 10 Sudoeste 0 -- -- 75
2020-01-16 17:00:00 -- 4 Sudoeste 8 Sur 0 -- -- 73
2020-01-16 16:00:00 -- 5 Sur 10 Sudeste 0 -- -- 71
2020-01-16 15:00:00 -- 7 Sur 16 Sudeste 0 -- -- 67
2020-01-16 14:00:00 -- 12 Sudeste 17 Sudeste 0 -- -- 71
2020-01-16 13:00:00 -- 10 Sudeste 14 Sudeste 0 -- -- 66
2020-01-16 12:00:00 -- 4 Sudeste 6 Sudeste 0 -- -- 52
2020-01-16 11:00:00 -- 0 Calma 2 Sudeste 0 -- -- 41
2020-01-16 10:00:00 -- 0 Calma 3 Nordeste 0 -- -- 60
2020-01-16 09:00:00 -- 0 Calma 4 Norte 0 -- -- 78
2020-01-16 08:00:00 -- 2 Nordeste 6 Norte 0 -- -- 80
2020-01-16 07:00:00 -- 2 Nordeste 6 Nordeste 0 -- -- 80
2020-01-16 06:00:00 -- 0 Calma 4 Norte 0 -- -- 81
2020-01-16 05:00:00 -- 0 Calma 4 Norte 0 -- -- 80
2020-01-16 04:00:00 -- 0 Calma 5 Norte 0 -- -- 79
2020-01-16 03:00:00 -- 2 Norte 4 Noroeste 0 -- -- 81
2020-01-16 02:00:00 -- 0 Calma 5 Noroeste 0 -- -- 79
2020-01-16 01:00:00 -- 3 Norte 6 Nordeste 0 -- -- 76
2020-01-16 00:00:00 -- 0 Calma 6 Nordeste 0 -- -- 80
2020-01-15 23:00:00 -- 0 Calma 6 Noroeste 0 -- -- 84
2020-01-15 22:00:00 -- 0 Calma 5 Nordeste 0 -- -- 82
2020-01-15 21:00:00 -- 0 Calma 7 Nordeste 0 -- -- 80
2020-01-15 20:00:00 -- 5 Nordeste 8 Nordeste 0 -- -- 77
2020-01-15 19:00:00 -- 2 Nordeste 9 Sudeste 0 -- -- 73
2020-01-15 18:00:00 -- 5 Sudeste 8 Sudeste 0 -- -- 70
2020-01-15 17:00:00 -- 4 Sur 9 Sur 0 -- -- 65
2020-01-15 16:00:00 -- 5 Sur 10 Sur 0 -- -- 60
2020-01-15 15:00:00 -- 8 Sudeste 22 Sudeste 0 -- -- 59
2020-01-15 14:00:00 -- 12 Sudeste 20 Sudeste 0 -- -- 60
2020-01-15 13:00:00 -- 13 Sudeste 18 Sudeste 0 -- -- 62
2020-01-15 12:00:00 -- 3 Sudeste 9 Sudeste 0 -- -- 44
2020-01-15 11:00:00 -- 0 Calma 4 Nordeste 0 -- -- 44
2020-01-15 10:00:00 -- 3 Nordeste 8 Nordeste 0 -- -- 58
2020-01-15 09:00:00 -- 3 Norte 8 Noroeste 0 -- -- 74
2020-01-15 08:00:00 -- 0 Calma 6 Noroeste 0 -- -- 72
2020-01-15 07:00:00 -- 2 Sudeste 9 Oeste 0 -- -- 72
2020-01-15 06:00:00 -- 5 Noroeste 12 Oeste 0 -- -- 64
2020-01-15 05:00:00 -- 3 Oeste 6 Oeste 0 -- -- 74
2020-01-15 04:00:00 -- 0 Calma 3 Sur 0 -- -- 73
2020-01-15 03:00:00 -- 0 Calma 6 Noroeste 0 -- -- 71
2020-01-15 02:00:00 -- 5 Oeste 10 Noroeste 0 -- -- 68
2020-01-15 01:00:00 -- 3 Noroeste 9 Noroeste 0 -- -- 66
2020-01-15 00:00:00 -- 0 Calma 7 Noroeste 0 -- -- 70
2020-01-14 23:00:00 -- 5 Noroeste 11 Oeste 0 -- -- 66
2020-01-14 22:00:00 -- 0 Calma 15 Oeste 0 -- -- 72
2020-01-14 21:00:00 -- 7 Noroeste 10 Noroeste 0 -- -- 73
2020-01-14 20:00:00 -- 2 Noroeste 4 Noroeste 0 -- -- 73
2020-01-14 19:00:00 -- 2 Norte 17 Oeste 0 -- -- 69
2020-01-14 18:00:00 -- 10 Oeste 27 Oeste 0 -- -- 65
2020-01-14 17:00:00 -- 12 Oeste 26 Oeste 0 -- -- 63
2020-01-14 16:00:00 -- 13 Oeste 27 Oeste 0 -- -- 58
2020-01-14 15:00:00 -- 13 Oeste 25 Oeste 0 -- -- 57
2020-01-14 14:00:00 -- 12 Oeste 25 Oeste 0 -- -- 54
2020-01-14 13:00:00 -- 11 Oeste 22 Sudoeste 0 -- -- 50
2020-01-14 12:00:00 -- 10 Oeste 19 Oeste 0 -- -- 42
2020-01-14 11:00:00 -- 0 Calma 5 Noroeste 0 -- -- 33
2020-01-14 10:00:00 -- 3 Norte 12 Norte 0 -- -- 51
2020-01-14 09:00:00 -- 3 Norte 5 Noroeste 0 -- -- 73
2020-01-14 08:00:00 -- 3 Oeste 5 Oeste 0 -- -- 76
2020-01-14 07:00:00 -- 0 Calma 8 Noroeste 0 -- -- 76
2020-01-14 06:00:00 -- 0 Calma 7 Sudoeste 0 -- -- 71
2020-01-14 05:00:00 -- 0 Calma 18 Noroeste 0 -- -- 70
2020-01-14 04:00:00 -- 10 Noroeste 18 Noroeste 0 -- -- 64
2020-01-14 03:00:00 -- 2 Sudeste 6 Oeste 0 -- -- 74
2020-01-14 02:00:00 -- 4 Norte 17 Oeste 0 -- -- 67
2020-01-14 01:00:00 -- 8 Noroeste 12 Noroeste 0 -- -- 75
2020-01-14 00:00:00 -- 5 Noroeste 16 Noroeste 0 -- -- 75
2020-01-13 23:00:00 -- 2 Noroeste 9 Oeste 0 -- -- 81
2020-01-13 22:00:00 -- 3 Noroeste 10 Noroeste 0 -- -- 81
2020-01-13 21:00:00 -- 3 Noroeste 6 Noroeste 0 -- -- 76
2020-01-13 20:00:00 -- 3 Noroeste 7 Oeste 0 -- -- 73
2020-01-13 19:00:00 -- 4 Noroeste 8 Oeste 0 -- -- 72
2020-01-13 18:00:00 -- 5 Sudoeste 10 Sudoeste 0 -- -- 69
2020-01-13 17:00:00 -- 4 Sudoeste 11 Sudoeste 0 -- -- 66
2020-01-13 16:00:00 -- 5 Sudoeste 11 Sudoeste 0 -- -- 62
2020-01-13 15:00:00 -- 6 Sur 10 Sur 0 -- -- 60
2020-01-13 14:00:00 -- 6 Sur 10 Sur 0 -- -- 58
2020-01-13 13:00:00 -- 6 Sur 12 Sudeste 0 -- -- 57
2020-01-13 12:00:00 -- 4 Sur 7 Sudoeste 0 -- -- 52
2020-01-13 11:00:00 -- 0 Calma 5 Nordeste 0 -- -- 44
2020-01-13 10:00:00 -- 2 Nordeste 8 Nordeste 0 -- -- 50
2020-01-13 09:00:00 -- 3 Nordeste 7 Nordeste 0 -- -- 69
2020-01-13 08:00:00 -- 0 Calma 6 Nordeste 0 -- -- 76
2020-01-13 07:00:00 -- 3 Nordeste 7 Nordeste 0 -- -- 76
2020-01-13 06:00:00 -- 6 Nordeste 10 Nordeste 0 -- -- 76
2020-01-13 05:00:00 -- 3 Nordeste 6 Nordeste 0 -- -- 79
2020-01-13 04:00:00 -- 4 Nordeste 8 Nordeste 0 -- -- 78
2020-01-13 03:00:00 -- 3 Nordeste 8 Nordeste 0 -- -- 79
2020-01-13 02:00:00 -- 4 Nordeste 8 Nordeste 0 -- -- 80
2020-01-13 01:00:00 -- 3 Nordeste 7 Nordeste 0 -- -- 80
2020-01-13 00:00:00 -- 2 Norte 5 Nordeste 0 -- -- 81
2020-01-12 23:00:00 -- 3 Este 5 Sudeste 0 -- -- 81
2020-01-12 22:00:00 -- 3 Nordeste 5 Nordeste 0 -- -- 77
2020-01-12 21:00:00 -- 2 Nordeste 5 Nordeste 0 -- -- 76
2020-01-12 20:00:00 -- 0 Calma 5 Oeste 0 -- -- 73
2020-01-12 19:00:00 -- 2 Oeste 10 Oeste 0 -- -- 71
2020-01-12 18:00:00 -- 3 Sur 11 Sudoeste 0 -- -- 70
2020-01-12 17:00:00 -- 5 Sudoeste 13 Sudoeste 0 -- -- 70
2020-01-12 16:00:00 -- 7 Sudoeste 14 Sudoeste 0 -- -- 67
2020-01-12 15:00:00 -- 6 Sudoeste 14 Sudoeste 0 -- -- 63
2020-01-12 14:00:00 18.2 8 Sudoeste 16 Sudoeste 0 -- -- 58
2020-01-12 13:00:00 17.9 8 Sudoeste 15 Sudoeste 0 -- -- 56
2020-01-12 12:00:00 19.2 7 Sudoeste 14 Sudoeste 0 -- -- 47
2020-01-12 11:00:00 20.3 3 Sur 5 Sudoeste 0 -- -- 42
2020-01-12 10:00:00 17.2 0 Calma 5 Nordeste 0 -- -- 50
2020-01-12 09:00:00 10.1 2 Norte 4 Norte 0 -- -- 74
2020-01-12 08:00:00 8.4 0 Calma 3 Noroeste 0 -- -- 77
2020-01-12 07:00:00 8.7 0 Calma 6 Oeste 0 -- -- 77
2020-01-12 06:00:00 8.8 0 Calma 6 Nordeste 0 -- -- 77
2020-01-12 05:00:00 8.9 0 Calma 5 Nordeste 0 -- -- 78
2020-01-12 04:00:00 9.8 3 Nordeste 9 Nordeste 0 -- -- 77
2020-01-12 03:00:00 9.9 3 Nordeste 8 Nordeste 0 -- -- 79
2020-01-12 02:00:00 9.8 2 Nordeste 9 Nordeste 0 -- -- 79
2020-01-12 01:00:00 9.9 3 Nordeste 6 Nordeste 0 -- -- 79
2020-01-12 00:00:00 10.4 0 Calma 4 Noroeste 0 -- -- 77
2020-01-11 23:00:00 10.8 3 Noroeste 9 Nordeste 0 -- -- 76
2020-01-11 22:00:00 11.6 4 Nordeste 8 Nordeste 0 -- -- 75
2020-01-11 21:00:00 11.6 3 Nordeste 5 Nordeste 0 -- -- 73
2020-01-11 20:00:00 12.4 5 Nordeste 7 Nordeste 0 -- -- 72
2020-01-11 19:00:00 13.3 3 Noroeste 7 Oeste 0 -- -- 70
2020-01-11 18:00:00 14.6 4 Oeste 9 Sudoeste 0 -- -- 65
2020-01-11 17:00:00 15.6 5 Sudoeste 9 Sudoeste 0 -- -- 58
2020-01-11 16:00:00 16.3 4 Sudoeste 10 Sur 0 -- -- 60
2020-01-11 15:00:00 18.7 4 Sur 11 Sudoeste 0 -- -- 53
2020-01-11 14:00:00 19.5 5 Sudoeste 10 Sudoeste 0 -- -- 47
2020-01-11 13:00:00 20.4 6 Sur 8 Sur 0 -- -- 44
2020-01-11 12:00:00 15.6 0 Calma 4 Sudeste 0 -- -- 49
2020-01-11 11:00:00 16.9 2 Sudeste 6 Oeste 0 -- -- 42
2020-01-11 10:00:00 16.9 2 Noroeste 5 Noroeste 0 -- -- 41
2020-01-11 09:00:00 9.6 3 Noroeste 7 Noroeste 0 -- -- 58
2020-01-11 08:00:00 10 3 Norte 8 Norte 0 -- -- 55
2020-01-11 07:00:00 10.4 4 Norte 14 Norte 0 -- -- 54
2020-01-11 06:00:00 10.2 4 Noroeste 10 Norte 0 -- -- 57
2020-01-11 05:00:00 10 5 Norte 9 Nordeste 0 -- -- 63
2020-01-11 04:00:00 10.3 3 Noroeste 9 Este 0 -- -- 62
2020-01-11 03:00:00 11.2 4 Norte 14 Nordeste 0 -- -- 57
2020-01-11 02:00:00 10.4 2 Nordeste 8 Nordeste 0 -- -- 69
2020-01-11 01:00:00 11.3 3 Este 8 Este 0 -- -- 70
2020-01-11 00:00:00 11.9 5 Nordeste 10 Este 0 -- -- 74
2020-01-10 23:00:00 13 4 Nordeste 14 Sudeste 0 -- -- 73
2020-01-10 22:00:00 14.6 12 Sudeste 18 Este 0 -- -- 73
2020-01-10 21:00:00 14.3 6 Este 19 Este 0 -- -- 71
2020-01-10 20:00:00 14.5 4 Nordeste 20 Este 0 -- -- 66
2020-01-10 19:00:00 14.9 5 Este 9 Este 0 -- -- 69
2020-01-10 18:00:00 15 0 Calma 17 Sudeste 0 -- -- 73
2020-01-10 17:00:00 15.4 9 Sudeste 12 Sudeste 0 -- -- 74
2020-01-10 16:00:00 15.6 6 Sudeste 9 Sur 0 -- -- 70
2020-01-10 15:00:00 18.1 4 Sur 9 Sur 0 -- -- 59
2020-01-10 14:00:00 19.3 5 Sudoeste 20 Oeste 0 -- -- 56
2020-01-10 13:00:00 19.4 9 Oeste 15 Oeste 0 -- -- 46
2020-01-10 12:00:00 20.5 5 Sur 12 Sudoeste 0 -- -- 48
2020-01-10 11:00:00 18.2 3 Sur 6 Sudeste 0 -- -- 58
2020-01-10 10:00:00 15.6 0 Calma 6 Oeste 0 -- -- 67
2020-01-10 09:00:00 9.2 3 Norte 9 Nordeste 0 -- -- 84
2020-01-10 08:00:00 8.7 3 Norte 10 Norte 0 -- -- 84
2020-01-10 07:00:00 8.8 2 Nordeste 9 Nordeste 0 -- -- 86
2020-01-10 06:00:00 8.2 3 Nordeste 8 Norte 0 -- -- 84
2020-01-10 05:00:00 8.8 0 Calma 6 Este 0 -- -- 84
2020-01-10 04:00:00 9.3 2 Noroeste 6 Norte 0 -- -- 83
2020-01-10 03:00:00 9.8 0 Calma 4 Sudoeste 0 -- -- 82
2020-01-10 02:00:00 10.6 0 Calma 5 Oeste 0 -- -- 81
2020-01-10 01:00:00 11 0 Calma 7 Noroeste 0 -- -- 80
2020-01-10 00:00:00 11.7 3 Noroeste 6 Noroeste 0 -- -- 82
2020-01-09 23:00:00 11.5 2 Noroeste 9 Nordeste 0 -- -- 82
2020-01-09 22:00:00 11.8 4 Nordeste 8 Nordeste 0 -- -- 81
2020-01-09 21:00:00 12.3 0 Calma 4 Norte 0 -- -- 77
2020-01-09 20:00:00 12.9 3 Norte 6 Nordeste 0 -- -- 74
2020-01-09 19:00:00 14 4 Oeste 9 Sudoeste 0 -- -- 72
2020-01-09 18:00:00 14.4 4 Oeste 9 Sudoeste 0 -- -- 69
2020-01-09 17:00:00 15.1 5 Sudoeste 14 Sudoeste 0 -- -- 67
2020-01-09 16:00:00 15.8 7 Sudoeste 14 Sudoeste 0 -- -- 63
2020-01-09 15:00:00 17.4 6 Sudoeste 16 Oeste 0 -- -- 56
2020-01-09 14:00:00 18.8 7 Sudoeste 12 Sudoeste 0 -- -- 51
2020-01-09 13:00:00 19.9 6 Sudoeste 12 Sudoeste 0 -- -- 48
2020-01-09 12:00:00 19.7 2 Sur 5 Sudeste 0 -- -- 49
2020-01-09 11:00:00 14.7 3 Norte 5 Norte 0 -- -- 67
2020-01-09 10:00:00 12.7 3 Nordeste 6 Nordeste 0 -- -- 71
2020-01-09 09:00:00 11.6 0 Calma 6 Este 0 -- -- 76
2020-01-09 08:00:00 10.6 0 Calma 4 Nordeste 0 -- -- 80
2020-01-09 07:00:00 11.3 3 Nordeste 9 Nordeste 0 -- -- 78
2020-01-09 06:00:00 11.4 5 Nordeste 8 Nordeste 0 -- -- 81
2020-01-09 05:00:00 11.3 3 Norte 9 Norte 0 -- -- 83
2020-01-09 04:00:00 11.6 3 Nordeste 6 Nordeste 0 -- -- 84
2020-01-09 03:00:00 11.5 3 Nordeste 8 Norte 0 -- -- 85
2020-01-09 02:00:00 11.4 5 Nordeste 9 Norte 0 -- -- 86
2020-01-09 01:00:00 10.9 5 Nordeste 9 Nordeste 0 -- -- 87
2020-01-09 00:00:00 10.9 5 Nordeste 8 Nordeste 0 -- -- 89
2020-01-08 23:00:00 10.7 5 Nordeste 9 Nordeste 0 -- -- 88
2020-01-08 22:00:00 11.1 3 Nordeste 10 Norte 0 -- -- 88
2020-01-08 21:00:00 10.8 4 Nordeste 7 Nordeste 0 -- -- 87
2020-01-08 20:00:00 11.5 0 Calma 5 Norte 0 -- -- 85
2020-01-08 19:00:00 12.8 2 Nordeste 19 Sudeste 0 -- -- 83
2020-01-08 18:00:00 14.1 14 Sudeste 17 Sudeste 0 -- -- 82
2020-01-08 17:00:00 14.6 10 Sudeste 14 Sudeste 0 -- -- 76
2020-01-08 16:00:00 15 6 Sudeste 10 Sudeste 0 -- -- 72
2020-01-08 15:00:00 17 6 Sur 9 Sur 0 -- -- 64
2020-01-08 14:00:00 18.5 4 Sur 11 Sur 0 -- -- 59
2020-01-08 13:00:00 19.1 6 Sur 9 Sur 0 -- -- 56
2020-01-08 12:00:00 19.1 4 Sur 6 Sur 0 -- -- 58
2020-01-08 11:00:00 18.4 2 Este 4 Sudeste 0 -- -- 60
2020-01-08 10:00:00 11.9 0 Calma 4 Oeste 0 -- -- 80
2020-01-08 09:00:00 8.8 3 Norte 8 Nordeste 0 -- -- 85
2020-01-08 08:00:00 6.8 4 Nordeste 7 Norte 0 -- -- 85
2020-01-08 07:00:00 6.9 2 Nordeste 6 Noroeste 0 -- -- 84
2020-01-08 06:00:00 7.1 2 Nordeste 7 Nordeste 0 -- -- 85
2020-01-08 05:00:00 7.5 0 Calma 5 Norte 0 -- -- 88
2020-01-08 04:00:00 7.2 2 Norte 5 Norte 0 -- -- 89
2020-01-08 03:00:00 7.6 0 Calma 4 Noroeste 0 -- -- 89
2020-01-08 02:00:00 8.2 0 Calma 2 Noroeste 0 -- -- 88
2020-01-08 01:00:00 8.5 0 Calma 5 Norte 0 -- -- 88
2020-01-08 00:00:00 8.8 0 Calma 5 Este 0 -- -- 88
2020-01-07 23:00:00 9.7 0 Calma 5 Nordeste 0 -- -- 88
2020-01-07 22:00:00 9.9 0 Calma 6 Nordeste 0 -- -- 87
2020-01-07 21:00:00 10.8 4 Nordeste 7 Nordeste 0 -- -- 85
2020-01-07 20:00:00 11.6 5 Nordeste 8 Nordeste 0 -- -- 83
2020-01-07 19:00:00 12.7 0 Calma 5 Oeste 0 -- -- 77
2020-01-07 18:00:00 13.9 0 Calma 7 Sur 0 -- -- 73
2020-01-07 17:00:00 14.6 3 Sur 9 Sur 0 -- -- 72
2020-01-07 16:00:00 15.3 5 Sur 9 Sur 0 -- -- 69
2020-01-07 15:00:00 16.7 5 Sur 10 Sur 0 -- -- 67
2020-01-07 14:00:00 18.2 7 Sur 10 Sur 0 -- -- 60
2020-01-07 13:00:00 19.2 5 Sur 9 Sur 0 -- -- 53
2020-01-07 12:00:00 19.8 4 Sur 6 Sur 0 -- -- 44
2020-01-07 11:00:00 19.6 0 Calma 2 Sur 0 -- -- 48
2020-01-07 10:00:00 16.8 0 Calma 4 Noroeste 0 -- -- 63
2020-01-07 09:00:00 8.5 0 Calma 6 Noroeste 0 -- -- 81
2020-01-07 08:00:00 6.7 0 Calma 5 Norte 0 -- -- 83
2020-01-07 07:00:00 6.4 3 Noroeste 6 Nordeste 0 -- -- 84
2020-01-07 06:00:00 7 0 Calma 4 Norte 0 -- -- 84
2020-01-07 05:00:00 7.1 2 Noroeste 4 Noroeste 0 -- -- 86
2020-01-07 04:00:00 7.5 3 Norte 5 Nordeste 0 -- -- 85
2020-01-07 03:00:00 7.7 3 Norte 5 Nordeste 0 -- -- 84
2020-01-07 02:00:00 8.8 4 Nordeste 7 Nordeste 0 -- -- 83
2020-01-07 01:00:00 8.4 0 Calma 6 Nordeste 0 -- -- 83
2020-01-07 00:00:00 8.9 0 Calma 3 Norte 0 -- -- 84
2020-01-06 23:00:00 9.2 0 Calma 8 Nordeste 0 -- -- 83
2020-01-06 22:00:00 10 3 Nordeste 7 Nordeste 0 -- -- 83
2020-01-06 21:00:00 10.2 2 Norte 6 Nordeste 0 -- -- 80
2020-01-06 20:00:00 11.1 0 Calma 5 Norte 0 -- -- 77
2020-01-06 19:00:00 12.6 2 Noroeste 7 Sudeste 0 -- -- 72
2020-01-06 18:00:00 13.9 5 Sudeste 10 Sudeste 0 -- -- 71
2020-01-06 17:00:00 14.5 6 Sudeste 13 Sudeste 0 -- -- 68
2020-01-06 16:00:00 15 9 Sudeste 13 Sudeste 0 -- -- 64
2020-01-06 15:00:00 17.5 6 Sur 10 Sur 0 -- -- 52
2020-01-06 14:00:00 18 6 Sur 12 Sudeste 0 -- -- 55
2020-01-06 13:00:00 17.8 9 Sudeste 11 Sudeste 0 -- -- 58
2020-01-06 12:00:00 20.3 4 Sur 6 Sur 0 -- -- 49
2020-01-06 11:00:00 20.8 0 Calma 4 Noroeste 0 -- -- 43
2020-01-06 10:00:00 14.4 2 Norte 5 Nordeste 0 -- -- 64